createdAt,value
2017-08-10T00:01:13.234Z,18.00
2017-08-10T00:03:42.329Z,18.00
2017-08-10T00:06:10.619Z,18.00
2017-08-10T00:08:38.929Z,17.90
2017-08-10T00:11:07.261Z,18.00
2017-08-10T00:13:36.354Z,17.90
2017-08-10T00:16:04.658Z,17.90
2017-08-10T00:18:32.960Z,17.80
2017-08-10T00:21:02.042Z,17.90
2017-08-10T00:23:30.402Z,17.80
2017-08-10T00:25:59.484Z,18.00
2017-08-10T00:28:27.805Z,17.90
2017-08-10T00:30:56.097Z,18.00
2017-08-10T00:33:24.456Z,18.00
2017-08-10T00:35:52.793Z,18.10
2017-08-10T00:38:21.120Z,18.10
2017-08-10T00:40:49.460Z,18.10
2017-08-10T00:43:17.759Z,18.10
2017-08-10T00:45:46.815Z,17.70
2017-08-10T00:48:15.896Z,18.20
2017-08-10T00:50:44.969Z,18.20
2017-08-10T00:53:13.310Z,18.20
2017-08-10T00:55:41.593Z,18.20
2017-08-10T00:58:09.928Z,18.10
2017-08-10T01:00:38.225Z,18.00
2017-08-10T01:03:06.531Z,18.00
2017-08-10T01:05:35.651Z,18.10
2017-08-10T01:08:04.710Z,18.10
2017-08-10T01:10:33.051Z,18.10
2017-08-10T01:13:01.437Z,18.10
2017-08-10T01:15:29.731Z,18.00
2017-08-10T01:17:58.062Z,18.00
2017-08-10T01:20:26.361Z,17.90
2017-08-10T01:22:54.680Z,17.90
2017-08-10T01:25:22.970Z,17.90
2017-08-10T01:27:51.306Z,18.00
2017-08-10T01:30:19.611Z,18.00
2017-08-10T01:32:48.711Z,18.00
2017-08-10T01:35:17.007Z,18.00
2017-08-10T01:37:45.306Z,18.00
2017-08-10T01:40:13.652Z,18.00
2017-08-10T01:42:41.953Z,18.00
2017-08-10T01:45:10.291Z,18.10
2017-08-10T01:47:38.609Z,18.10
2017-08-10T01:50:06.905Z,18.10
2017-08-10T01:52:35.230Z,18.20
2017-08-10T01:55:03.549Z,18.10
2017-08-10T01:57:32.602Z,18.00
2017-08-10T02:00:00.924Z,17.90
2017-08-10T02:02:29.271Z,17.90
2017-08-10T02:04:57.572Z,18.00
2017-08-10T02:07:25.865Z,18.00
2017-08-10T02:09:54.190Z,17.90
2017-08-10T02:12:23.249Z,17.80
2017-08-10T02:14:51.561Z,17.80
2017-08-10T02:17:19.853Z,17.80
2017-08-10T02:19:48.439Z,17.70
2017-08-10T02:22:17.508Z,17.60
2017-08-10T02:24:45.809Z,17.60
2017-08-10T02:27:14.124Z,17.60
2017-08-10T02:29:42.423Z,17.60
2017-08-10T02:32:10.747Z,17.60
2017-08-10T02:34:39.072Z,17.60
2017-08-10T02:37:07.368Z,17.50
2017-08-10T02:39:35.695Z,17.40
2017-08-10T02:42:04.807Z,17.30
2017-08-10T02:44:33.102Z,17.30
2017-08-10T02:47:01.397Z,17.30
2017-08-10T02:49:29.734Z,17.30
2017-08-10T02:51:58.801Z,17.30
2017-08-10T02:54:27.095Z,17.30
2017-08-10T02:56:55.486Z,17.40
2017-08-10T02:59:23.778Z,17.40
2017-08-10T03:01:52.868Z,17.50
2017-08-10T03:04:21.186Z,17.50
2017-08-10T03:06:49.505Z,17.50
2017-08-10T03:09:18.596Z,17.40
2017-08-10T03:11:46.899Z,17.40
2017-08-10T03:14:15.220Z,17.40
2017-08-10T03:16:43.532Z,17.40
2017-08-10T03:19:12.643Z,17.50
2017-08-10T03:21:40.955Z,17.50
2017-08-10T03:24:09.248Z,17.60
2017-08-10T03:26:38.338Z,17.60
2017-08-10T03:29:06.633Z,17.60
2017-08-10T03:31:34.978Z,17.70
2017-08-10T03:34:04.045Z,17.60
2017-08-10T03:36:32.356Z,17.60
2017-08-10T03:39:00.679Z,17.50
2017-08-10T03:41:29.059Z,17.50
2017-08-10T03:43:57.378Z,17.50
2017-08-10T03:46:25.704Z,17.50
2017-08-10T03:48:54.000Z,17.50
2017-08-10T03:51:22.291Z,17.60
2017-08-10T03:53:50.623Z,17.60
2017-08-10T03:56:19.700Z,17.60
2017-08-10T03:58:47.998Z,17.50
2017-08-10T04:01:16.341Z,17.50
2017-08-10T04:03:44.678Z,17.50
2017-08-10T04:06:13.800Z,17.30
2017-08-10T04:08:42.909Z,17.30
2017-08-10T04:11:11.203Z,17.20
2017-08-10T04:13:39.504Z,17.20
2017-08-10T04:16:07.833Z,17.10
2017-08-10T04:18:36.890Z,16.90
2017-08-10T04:21:05.178Z,16.90
2017-08-10T04:23:33.504Z,16.90
2017-08-10T04:26:01.847Z,16.90
2017-08-10T04:28:30.141Z,16.90
2017-08-10T04:30:58.469Z,16.90
2017-08-10T04:33:26.796Z,16.90
2017-08-10T04:35:55.350Z,16.90
2017-08-10T04:38:23.647Z,16.90
2017-08-10T04:40:51.977Z,16.90
2017-08-10T04:43:21.034Z,16.80
2017-08-10T04:45:49.324Z,16.80
2017-08-10T04:48:17.673Z,16.80
2017-08-10T04:50:45.961Z,16.80
2017-08-10T04:53:14.329Z,16.90
2017-08-10T04:55:42.621Z,16.90
2017-08-10T04:58:11.684Z,16.90
2017-08-10T05:00:39.998Z,16.90
2017-08-10T05:03:08.326Z,16.90
2017-08-10T05:05:36.686Z,16.90
2017-08-10T05:08:05.002Z,16.90
2017-08-10T05:10:33.298Z,16.80
2017-08-10T05:13:01.638Z,16.80
2017-08-10T05:15:29.949Z,16.80
2017-08-10T05:17:59.046Z,16.80
2017-08-10T05:20:27.370Z,16.80
2017-08-10T05:22:56.014Z,16.80
2017-08-10T05:25:24.309Z,16.90
2017-08-10T05:27:52.633Z,17.00
2017-08-10T05:30:21.367Z,16.90
2017-08-10T05:32:49.662Z,16.90
2017-08-10T05:35:18.741Z,17.00
2017-08-10T05:37:47.053Z,17.00
2017-08-10T05:40:15.390Z,17.00
2017-08-10T05:42:43.697Z,17.00
2017-08-10T05:45:11.993Z,17.00
2017-08-10T05:47:40.340Z,17.00
2017-08-10T05:50:08.636Z,17.00
2017-08-10T05:52:36.937Z,17.00
2017-08-10T05:55:05.257Z,17.00
2017-08-10T05:57:33.559Z,17.00
2017-08-10T06:00:01.849Z,17.10
2017-08-10T06:02:30.181Z,17.10
2017-08-10T06:04:58.513Z,17.20
2017-08-10T06:07:26.845Z,17.10
2017-08-10T06:09:55.164Z,17.00
2017-08-10T06:12:23.508Z,17.00
2017-08-10T06:14:51.833Z,17.00
2017-08-10T06:17:21.011Z,17.10
2017-08-10T06:19:49.303Z,17.00
2017-08-10T06:22:17.661Z,17.00
2017-08-10T06:24:46.717Z,17.10
2017-08-10T06:27:15.010Z,17.10
2017-08-10T06:29:43.337Z,17.10
2017-08-10T06:32:11.629Z,17.00
2017-08-10T06:34:39.923Z,17.00
2017-08-10T06:37:08.250Z,17.00
2017-08-10T06:39:36.646Z,16.90
2017-08-10T06:42:04.963Z,16.90
2017-08-10T06:44:33.302Z,16.90
2017-08-10T06:47:01.606Z,16.80
2017-08-10T06:49:29.897Z,16.80
2017-08-10T06:51:58.241Z,16.80
2017-08-10T06:54:27.341Z,17.00
2017-08-10T06:56:55.674Z,17.00
2017-08-10T06:59:23.965Z,17.00
2017-08-10T07:01:53.023Z,16.90
2017-08-10T07:04:21.346Z,16.90
2017-08-10T07:06:49.676Z,16.90
2017-08-10T07:09:17.984Z,17.00
2017-08-10T07:11:47.058Z,16.90
2017-08-10T07:14:15.398Z,16.90
2017-08-10T07:16:43.688Z,16.90
2017-08-10T07:19:11.985Z,16.90
2017-08-10T07:21:40.324Z,16.90
2017-08-10T07:24:08.627Z,16.90
2017-08-10T07:26:36.937Z,16.90
2017-08-10T07:29:05.260Z,16.90
2017-08-10T07:31:34.320Z,17.00
2017-08-10T07:34:02.664Z,17.00
2017-08-10T07:36:30.953Z,17.10
2017-08-10T07:38:59.245Z,17.10
2017-08-10T07:41:27.569Z,17.20
2017-08-10T07:43:55.864Z,17.20
2017-08-10T07:46:24.196Z,17.20
2017-08-10T07:48:53.309Z,17.20
2017-08-10T07:51:22.451Z,17.20
2017-08-10T07:53:50.814Z,17.20
2017-08-10T07:56:19.171Z,17.30
2017-08-10T07:58:47.457Z,17.30
2017-08-10T08:01:16.544Z,17.50
2017-08-10T08:03:44.908Z,17.50
2017-08-10T08:06:13.314Z,17.60
2017-08-10T08:08:41.608Z,17.50
2017-08-10T08:11:09.981Z,17.30
2017-08-10T08:13:39.042Z,17.10
2017-08-10T08:16:07.347Z,17.10
2017-08-10T08:18:35.665Z,17.10
2017-08-10T08:21:04.914Z,17.00
2017-08-10T08:23:33.215Z,17.00
2017-08-10T08:26:01.569Z,17.00
2017-08-10T08:28:29.964Z,17.00
2017-08-10T08:30:58.305Z,17.00
2017-08-10T08:33:26.631Z,17.00
2017-08-10T08:35:54.965Z,16.90
2017-08-10T08:38:23.702Z,16.90
2017-08-10T08:40:53.021Z,17.00
2017-08-10T08:43:22.128Z,17.10
2017-08-10T08:45:50.473Z,17.10
2017-08-10T08:48:18.757Z,17.30
2017-08-10T08:50:47.852Z,17.40
2017-08-10T08:53:16.230Z,17.30
2017-08-10T08:55:44.573Z,17.40
2017-08-10T08:58:12.888Z,17.40
2017-08-10T09:00:42.031Z,17.40
2017-08-10T09:03:10.352Z,17.40
2017-08-10T09:05:38.655Z,17.40
2017-08-10T09:08:07.000Z,17.40
2017-08-10T09:10:35.289Z,17.30
2017-08-10T09:13:03.581Z,17.20
2017-08-10T09:15:31.899Z,17.10
2017-08-10T09:18:00.217Z,17.00
2017-08-10T09:20:28.522Z,17.00
2017-08-10T09:22:56.845Z,17.00
2017-08-10T09:25:25.897Z,16.90
2017-08-10T09:27:54.188Z,16.90
2017-08-10T09:30:22.528Z,16.90
2017-08-10T09:32:50.826Z,16.90
2017-08-10T09:35:19.144Z,17.00
2017-08-10T09:37:47.434Z,17.00
2017-08-10T09:40:15.756Z,17.00
2017-08-10T09:42:44.065Z,16.90
2017-08-10T09:45:12.354Z,16.90
2017-08-10T09:47:40.685Z,16.90
2017-08-10T09:50:08.978Z,16.90
2017-08-10T09:52:37.314Z,16.90
2017-08-10T09:55:06.375Z,16.90
2017-08-10T09:57:34.678Z,16.90
2017-08-10T10:00:03.009Z,17.00
2017-08-10T10:02:31.298Z,17.00
2017-08-10T10:04:59.610Z,17.10
2017-08-10T10:07:27.929Z,17.20
2017-08-10T10:09:56.224Z,17.20
2017-08-10T10:12:24.526Z,17.20
2017-08-10T10:14:52.848Z,17.20
2017-08-10T10:17:21.929Z,17.40
2017-08-10T10:19:50.252Z,17.40
2017-08-10T10:22:18.537Z,17.50
2017-08-10T10:24:46.850Z,17.60
2017-08-10T10:27:15.174Z,17.70
2017-08-10T10:29:43.538Z,17.70
2017-08-10T10:32:11.875Z,17.80
2017-08-10T10:34:40.164Z,17.80
2017-08-10T10:37:08.452Z,17.80
2017-08-10T10:39:36.825Z,17.80
2017-08-10T10:42:05.117Z,17.80
2017-08-10T10:44:33.425Z,17.80
2017-08-10T10:47:01.739Z,17.70
2017-08-10T10:49:30.054Z,17.70
2017-08-10T10:51:58.354Z,17.60
2017-08-10T10:54:26.718Z,17.60
2017-08-10T10:56:55.814Z,17.50
2017-08-10T10:59:24.122Z,17.50
2017-08-10T11:01:52.413Z,17.40
2017-08-10T11:04:20.749Z,17.30
2017-08-10T11:06:49.054Z,17.10
2017-08-10T11:09:17.346Z,16.90
2017-08-10T11:11:46.433Z,16.80
2017-08-10T11:14:14.726Z,16.70
2017-08-10T11:16:43.049Z,16.80
2017-08-10T11:19:11.346Z,16.90
2017-08-10T11:21:39.682Z,16.80
2017-08-10T11:24:08.745Z,16.70
2017-08-10T11:26:37.046Z,16.70
2017-08-10T11:29:05.356Z,16.60
2017-08-10T11:31:33.658Z,16.60
2017-08-10T11:34:02.001Z,16.40
2017-08-10T11:36:30.371Z,16.40
2017-08-10T11:38:58.656Z,16.40
2017-08-10T11:41:27.216Z,16.40
2017-08-10T11:43:56.288Z,16.20
2017-08-10T11:46:24.629Z,16.20
2017-08-10T11:48:52.931Z,16.20
2017-08-10T11:51:21.227Z,16.10
2017-08-10T11:53:49.547Z,16.00
2017-08-10T11:56:18.609Z,16.10
2017-08-10T11:58:46.917Z,16.10
2017-08-10T12:01:15.254Z,16.10
2017-08-10T12:03:43.573Z,16.10
2017-08-10T12:06:11.893Z,16.00
2017-08-10T12:08:40.182Z,16.00
2017-08-10T12:11:08.506Z,16.00
2017-08-10T12:13:36.819Z,16.00
2017-08-10T12:16:05.125Z,15.90
2017-08-10T12:18:33.485Z,15.90
2017-08-10T12:21:02.561Z,15.90
2017-08-10T12:23:30.851Z,15.80
2017-08-10T12:25:59.186Z,15.90
2017-08-10T12:28:27.486Z,15.90
2017-08-10T12:30:55.785Z,15.90
2017-08-10T12:33:24.106Z,15.90
2017-08-10T12:35:52.439Z,15.90
2017-08-10T12:38:20.752Z,15.90
2017-08-10T12:40:49.048Z,15.80
2017-08-10T12:43:18.145Z,15.80
2017-08-10T12:45:46.455Z,15.70
2017-08-10T12:48:14.758Z,15.70
2017-08-10T12:50:43.080Z,15.70
2017-08-10T12:53:11.370Z,15.70
2017-08-10T12:55:39.657Z,15.70
2017-08-10T12:58:08.043Z,15.70
2017-08-10T13:00:36.354Z,15.80
2017-08-10T13:03:04.654Z,15.80
2017-08-10T13:05:33.062Z,15.90
2017-08-10T13:08:01.382Z,15.90
2017-08-10T13:10:29.703Z,15.90
2017-08-10T13:12:58.958Z,15.90
2017-08-10T13:15:27.316Z,15.90
2017-08-10T13:17:55.677Z,15.80
2017-08-10T13:20:23.979Z,15.80
2017-08-10T13:22:52.297Z,15.80
2017-08-10T13:25:20.650Z,15.80
2017-08-10T13:27:49.720Z,15.80
2017-08-10T13:30:18.023Z,15.70
2017-08-10T13:32:46.416Z,15.70
2017-08-10T13:35:14.780Z,15.70
2017-08-10T13:37:44.504Z,15.70
2017-08-10T13:40:12.805Z,15.70
2017-08-10T13:42:41.139Z,15.70
2017-08-10T13:45:10.198Z,15.70
2017-08-10T13:47:39.481Z,15.70
2017-08-10T13:50:07.816Z,15.70
2017-08-10T13:52:36.154Z,15.70
2017-08-10T13:55:04.464Z,15.70
2017-08-10T13:57:33.604Z,15.60
2017-08-10T14:00:02.750Z,15.60
2017-08-10T14:02:31.119Z,15.60
2017-08-10T14:05:00.226Z,15.60
2017-08-10T14:07:28.591Z,15.60
2017-08-10T14:09:56.913Z,15.60
2017-08-10T14:12:25.214Z,15.60
2017-08-10T14:14:53.533Z,15.50
2017-08-10T14:17:21.856Z,15.40
2017-08-10T14:19:50.194Z,15.40
2017-08-10T14:22:19.252Z,15.30
2017-08-10T14:24:47.563Z,15.30
2017-08-10T14:27:15.942Z,15.40
2017-08-10T14:29:45.977Z,15.30
2017-08-10T14:32:15.043Z,15.40
2017-08-10T14:34:43.360Z,15.40
2017-08-10T14:37:11.685Z,15.40
2017-08-10T14:39:40.811Z,15.40
2017-08-10T14:42:09.906Z,15.40
2017-08-10T14:44:38.202Z,15.40
2017-08-10T14:47:06.498Z,15.40
2017-08-10T14:49:34.821Z,15.30
2017-08-10T14:52:03.153Z,15.30
2017-08-10T14:54:32.212Z,15.20
2017-08-10T14:57:00.500Z,15.20
2017-08-10T14:59:28.839Z,15.20
2017-08-10T15:01:57.138Z,15.20
2017-08-10T15:04:25.430Z,15.30
2017-08-10T15:06:53.752Z,15.30
2017-08-10T15:09:22.074Z,15.40
2017-08-10T15:11:50.509Z,15.40
2017-08-10T15:14:18.843Z,15.40
2017-08-10T15:16:47.165Z,15.40
2017-08-10T15:19:15.500Z,15.40
2017-08-10T15:21:44.586Z,15.30
2017-08-10T15:24:12.939Z,15.30
2017-08-10T15:26:41.268Z,15.30
2017-08-10T15:29:09.596Z,15.30
2017-08-10T15:31:37.896Z,15.30
2017-08-10T15:34:06.217Z,15.30
2017-08-10T15:36:35.285Z,15.40
2017-08-10T15:39:03.631Z,15.40
2017-08-10T15:41:31.959Z,15.40
2017-08-10T15:44:01.040Z,15.50
2017-08-10T15:46:29.417Z,15.40
2017-08-10T15:48:57.758Z,15.40
2017-08-10T15:51:26.056Z,15.40
2017-08-10T15:53:54.358Z,15.40
2017-08-10T15:56:22.681Z,15.40
2017-08-10T15:58:51.047Z,15.40
2017-08-10T16:01:19.362Z,15.50
2017-08-10T16:03:47.688Z,15.40
2017-08-10T16:06:16.813Z,15.40
2017-08-10T16:08:45.116Z,15.40
2017-08-10T16:11:13.433Z,15.40
2017-08-10T16:13:42.519Z,15.40
2017-08-10T16:16:10.863Z,15.40
2017-08-10T16:18:39.925Z,15.30
2017-08-10T16:21:08.222Z,15.30
2017-08-10T16:23:36.555Z,15.30
2017-08-10T16:26:04.858Z,15.40
2017-08-10T16:28:33.159Z,15.40
2017-08-10T16:31:01.487Z,15.40
2017-08-10T16:33:30.597Z,15.40
2017-08-10T16:35:58.961Z,15.40
2017-08-10T16:38:27.305Z,15.40
2017-08-10T16:40:55.653Z,15.40
2017-08-10T16:43:23.964Z,15.40
2017-08-10T16:45:52.291Z,15.40
2017-08-10T16:48:20.642Z,15.40
2017-08-10T16:50:49.716Z,15.40
2017-08-10T16:53:18.884Z,15.40
2017-08-10T16:55:48.025Z,15.50
2017-08-10T16:58:17.119Z,15.50
2017-08-10T17:00:45.439Z,15.50
2017-08-10T17:03:13.735Z,15.60
2017-08-10T17:05:42.063Z,15.50
2017-08-10T17:08:11.133Z,15.50
2017-08-10T17:10:39.447Z,15.50
2017-08-10T17:13:07.749Z,15.50
2017-08-10T17:15:36.132Z,15.50
2017-08-10T17:18:04.432Z,15.40
2017-08-10T17:20:32.761Z,15.30
2017-08-10T17:23:01.064Z,15.30
2017-08-10T17:25:29.394Z,15.30
2017-08-10T17:27:57.718Z,15.30
2017-08-10T17:30:26.044Z,15.30
2017-08-10T17:32:55.128Z,15.30
2017-08-10T17:35:23.452Z,15.30
2017-08-10T17:37:51.781Z,15.30
2017-08-10T17:40:20.075Z,15.30
2017-08-10T17:42:49.042Z,15.30
2017-08-10T17:45:17.349Z,15.40
2017-08-10T17:47:46.470Z,15.30
2017-08-10T17:50:15.545Z,15.30
2017-08-10T17:52:43.840Z,15.30
2017-08-10T17:55:12.170Z,15.30
2017-08-10T17:57:40.476Z,15.30
2017-08-10T18:00:08.772Z,15.30
2017-08-10T18:02:37.100Z,15.30
2017-08-10T18:05:05.388Z,15.30
2017-08-10T18:07:33.693Z,15.30
2017-08-10T18:10:02.024Z,15.30
2017-08-10T18:12:30.353Z,15.20
2017-08-10T18:14:58.665Z,15.30
2017-08-10T18:17:27.003Z,15.30
2017-08-10T18:19:55.300Z,15.30
2017-08-10T18:22:23.593Z,15.30
2017-08-10T18:24:51.915Z,15.30
2017-08-10T18:27:20.221Z,15.40
2017-08-10T18:29:49.337Z,15.40
2017-08-10T18:32:18.073Z,15.40
2017-08-10T18:34:47.140Z,15.40
2017-08-10T18:37:15.466Z,15.40
2017-08-10T18:39:43.788Z,15.40
2017-08-10T18:42:12.162Z,15.40
2017-08-10T18:44:40.472Z,15.50
2017-08-10T18:47:08.769Z,15.50
2017-08-10T18:49:37.101Z,15.50
2017-08-10T18:52:05.400Z,15.60
2017-08-10T18:54:33.699Z,15.50
2017-08-10T18:57:02.067Z,15.60
2017-08-10T18:59:30.394Z,15.50
2017-08-10T19:01:59.847Z,15.50
2017-08-10T19:04:28.984Z,15.60
2017-08-10T19:06:57.268Z,15.60
2017-08-10T19:09:25.566Z,15.60
2017-08-10T19:11:53.901Z,15.50
2017-08-10T19:14:22.221Z,15.50
2017-08-10T19:16:50.530Z,15.40
2017-08-10T19:19:18.856Z,15.30
2017-08-10T19:21:47.197Z,15.30
2017-08-10T19:24:15.541Z,15.30
2017-08-10T19:26:43.853Z,15.30
2017-08-10T19:29:12.921Z,15.20
2017-08-10T19:31:41.257Z,15.20
2017-08-10T19:34:09.576Z,15.20
2017-08-10T19:36:37.902Z,15.20
2017-08-10T19:39:06.208Z,15.20
2017-08-10T19:41:34.546Z,15.20
2017-08-10T19:44:02.874Z,15.30
2017-08-10T19:46:31.934Z,15.30
2017-08-10T19:49:00.333Z,15.30
2017-08-10T19:51:28.686Z,15.40
2017-08-10T19:53:56.985Z,15.40
2017-08-10T19:56:25.278Z,15.40
2017-08-10T19:58:53.590Z,15.50
2017-08-10T20:01:21.881Z,15.60
2017-08-10T20:03:50.281Z,15.60
2017-08-10T20:06:18.577Z,15.50
2017-08-10T20:08:46.923Z,15.40
2017-08-10T20:11:15.231Z,15.40
2017-08-10T20:13:43.523Z,15.40
2017-08-10T20:16:11.845Z,15.40
2017-08-10T20:18:40.140Z,15.40
2017-08-10T20:21:08.476Z,15.50
2017-08-10T20:23:36.769Z,15.40
2017-08-10T20:26:05.066Z,15.50
2017-08-10T20:28:33.395Z,15.40
2017-08-10T20:31:01.702Z,15.40
2017-08-10T20:33:30.040Z,15.40
2017-08-10T20:35:59.233Z,15.40
2017-08-10T20:38:27.554Z,15.30
2017-08-10T20:40:55.884Z,15.40
2017-08-10T20:43:24.176Z,15.30
2017-08-10T20:45:52.470Z,15.40
2017-08-10T20:48:21.560Z,15.40
2017-08-10T20:50:49.895Z,15.40
2017-08-10T20:53:18.262Z,15.40
2017-08-10T20:55:46.552Z,15.40
2017-08-10T20:58:14.844Z,15.40
2017-08-10T21:00:43.169Z,15.50
2017-08-10T21:03:11.544Z,15.50
2017-08-10T21:05:40.637Z,15.50
2017-08-10T21:08:08.986Z,15.40
2017-08-10T21:10:38.056Z,15.50
2017-08-10T21:13:06.369Z,15.50
2017-08-10T21:15:34.707Z,15.50
2017-08-10T21:18:03.000Z,15.50
2017-08-10T21:20:31.298Z,15.50
2017-08-10T21:22:59.619Z,15.50
2017-08-10T21:25:27.913Z,15.40
2017-08-10T21:27:56.232Z,15.50
2017-08-10T21:30:24.533Z,15.40
2017-08-10T21:32:52.856Z,15.40
2017-08-10T21:35:21.152Z,15.40
2017-08-10T21:37:49.491Z,15.50
2017-08-10T21:40:17.784Z,15.50
2017-08-10T21:42:46.165Z,15.40
2017-08-10T21:45:14.489Z,15.40
2017-08-10T21:47:42.790Z,15.40
2017-08-10T21:50:11.124Z,15.40
2017-08-10T21:52:40.189Z,15.30
2017-08-10T21:55:08.493Z,15.30
2017-08-10T21:57:36.826Z,15.40
2017-08-10T22:00:05.120Z,15.40
2017-08-10T22:02:33.418Z,15.40
2017-08-10T22:05:01.754Z,15.40
2017-08-10T22:07:30.057Z,15.30
2017-08-10T22:09:58.390Z,15.30
2017-08-10T22:12:27.447Z,15.40
2017-08-10T22:14:55.742Z,15.30
2017-08-10T22:17:24.070Z,15.40
2017-08-10T22:19:52.368Z,15.40
2017-08-10T22:22:20.700Z,15.40
2017-08-10T22:24:49.004Z,15.40
2017-08-10T22:27:17.297Z,15.40
2017-08-10T22:29:45.635Z,15.30
2017-08-10T22:32:14.697Z,15.30
2017-08-10T22:34:42.988Z,15.20
2017-08-10T22:37:11.315Z,15.20
2017-08-10T22:39:39.609Z,15.20
2017-08-10T22:42:07.900Z,15.20
2017-08-10T22:44:36.216Z,15.20
2017-08-10T22:47:04.503Z,15.20
2017-08-10T22:49:32.814Z,15.20
2017-08-10T22:52:01.130Z,15.20
2017-08-10T22:54:29.481Z,15.30
2017-08-10T22:56:58.573Z,15.20
2017-08-10T22:59:26.865Z,15.20
2017-08-10T23:01:55.162Z,15.20
2017-08-10T23:04:23.482Z,15.20
2017-08-10T23:06:51.776Z,15.20
2017-08-10T23:09:20.100Z,15.20
2017-08-10T23:11:48.398Z,15.20
2017-08-10T23:14:16.734Z,15.30
2017-08-10T23:16:45.025Z,15.20
2017-08-10T23:19:13.318Z,15.30
2017-08-10T23:21:41.630Z,15.30
2017-08-10T23:24:09.929Z,15.20
2017-08-10T23:26:38.265Z,15.30
2017-08-10T23:29:06.558Z,15.30
2017-08-10T23:31:34.853Z,15.30
2017-08-10T23:34:03.193Z,15.30
2017-08-10T23:36:31.486Z,15.30
2017-08-10T23:38:59.774Z,15.30
2017-08-10T23:41:28.128Z,15.30
2017-08-10T23:43:56.437Z,15.30
2017-08-10T23:46:25.493Z,15.30
2017-08-10T23:48:53.816Z,15.30
2017-08-10T23:51:22.108Z,15.30
2017-08-10T23:53:50.427Z,15.30
2017-08-10T23:56:18.744Z,15.20
2017-08-10T23:58:47.059Z,15.20
